createdAt,value
2022-09-22T00:01:29.043Z,0.98
2022-09-22T00:04:00.341Z,1.10
2022-09-22T00:06:36.980Z,0.90
2022-09-22T00:09:06.387Z,0.85
2022-09-22T00:11:45.951Z,0.95
2022-09-22T00:14:15.610Z,1.02
2022-09-22T00:16:46.729Z,1.10
2022-09-22T00:19:21.375Z,0.70
2022-09-22T00:21:48.846Z,0.77
2022-09-22T00:24:17.360Z,1.00
2022-09-22T00:26:44.698Z,0.70
2022-09-22T00:29:12.647Z,0.82
2022-09-22T00:31:41.930Z,0.73
2022-09-22T00:34:17.122Z,0.80
2022-09-22T00:36:44.779Z,0.95
2022-09-22T00:39:13.510Z,0.90
2022-09-22T00:41:44.730Z,0.70
2022-09-22T00:44:26.783Z,1.08
2022-09-22T00:47:02.693Z,1.00
2022-09-22T00:50:19.177Z,0.82
2022-09-22T00:52:58.787Z,0.75
2022-09-22T00:55:52.287Z,0.63
2022-09-22T00:58:23.678Z,0.75
2022-09-22T01:00:51.014Z,0.80
2022-09-22T01:03:26.252Z,0.82
2022-09-22T01:06:01.718Z,0.88
2022-09-22T01:08:31.423Z,1.00
2022-09-22T01:10:59.498Z,0.77
2022-09-22T01:13:39.295Z,1.13
2022-09-22T01:16:30.622Z,1.00
2022-09-22T01:19:22.941Z,0.98
2022-09-22T01:22:14.486Z,0.90
2022-09-22T01:25:23.638Z,0.90
2022-09-22T01:28:38.447Z,0.77
2022-09-22T01:31:41.851Z,0.80
2022-09-22T01:34:52.635Z,0.90
2022-09-22T01:37:36.528Z,0.80
2022-09-22T01:40:09.388Z,0.80
2022-09-22T01:43:42.783Z,0.77
2022-09-22T01:46:31.025Z,1.00
2022-09-22T01:49:03.150Z,0.75
2022-09-22T01:51:39.366Z,0.73
2022-09-22T01:54:24.796Z,1.15
2022-09-22T01:57:01.195Z,1.10
2022-09-22T01:59:31.730Z,1.10
2022-09-22T02:02:12.619Z,0.90
2022-09-22T02:07:25.138Z,0.80
2022-09-22T02:09:53.126Z,0.90
2022-09-22T02:12:20.219Z,0.80
2022-09-22T02:14:47.451Z,1.00
2022-09-22T02:17:15.855Z,0.82
2022-09-22T02:19:42.979Z,0.98
2022-09-22T02:22:12.179Z,1.00
2022-09-22T02:24:44.166Z,0.88
2022-09-22T02:27:25.604Z,0.77
2022-09-22T02:30:08.247Z,0.90
2022-09-22T02:32:38.850Z,0.85
2022-09-22T02:35:07.531Z,0.80
2022-09-22T02:38:16.474Z,0.80
2022-09-22T02:41:18.487Z,1.05
2022-09-22T02:43:59.282Z,0.80
2022-09-22T02:46:40.567Z,1.20
2022-09-22T02:49:15.758Z,0.80
2022-09-22T02:51:43.437Z,1.05
2022-09-22T02:54:10.337Z,0.88
2022-09-22T02:56:37.320Z,0.88
2022-09-22T02:59:04.294Z,1.00
2022-09-22T03:01:31.265Z,1.15
2022-09-22T03:03:58.220Z,0.88
2022-09-22T03:06:25.178Z,1.15
2022-09-22T03:08:52.196Z,0.88
2022-09-22T03:11:19.143Z,0.82
2022-09-22T03:13:46.121Z,0.75
2022-09-22T03:16:13.318Z,0.98
2022-09-22T03:18:40.337Z,0.80
2022-09-22T03:21:07.813Z,1.08
2022-09-22T03:23:34.722Z,0.88
2022-09-22T03:26:01.699Z,1.02
2022-09-22T03:35:53.414Z,1.00
2022-09-22T03:38:20.325Z,0.80
2022-09-22T03:40:52.614Z,0.80
2022-09-22T03:43:20.474Z,1.00
2022-09-22T03:45:47.480Z,0.80
2022-09-22T03:48:14.565Z,0.80
2022-09-22T03:50:41.482Z,0.85
2022-09-22T03:53:08.420Z,0.88
2022-09-22T03:55:35.360Z,0.80
2022-09-22T03:58:03.719Z,0.70
2022-09-22T04:00:30.681Z,1.15
2022-09-22T04:02:58.559Z,0.90
2022-09-22T04:05:26.717Z,0.75
2022-09-22T04:07:53.755Z,0.98
2022-09-22T04:10:21.250Z,1.15
2022-09-22T04:12:48.481Z,1.00
2022-09-22T04:15:15.583Z,1.00
2022-09-22T04:17:42.496Z,0.95
2022-09-22T04:20:11.775Z,1.00
2022-09-22T04:22:39.248Z,1.10
2022-09-22T04:25:07.699Z,1.00
2022-09-22T04:27:34.595Z,0.77
2022-09-22T04:30:01.516Z,0.95
2022-09-22T04:32:28.465Z,0.90
2022-09-22T04:34:55.457Z,1.00
2022-09-22T04:37:22.354Z,1.17
2022-09-22T04:39:50.274Z,0.82
2022-09-22T04:42:17.197Z,0.85
2022-09-22T04:44:44.400Z,0.93
2022-09-22T04:47:11.335Z,0.88
2022-09-22T04:49:38.370Z,0.88
2022-09-22T04:52:05.421Z,1.20
2022-09-22T04:54:32.525Z,1.08
2022-09-22T04:56:59.486Z,1.00
2022-09-22T04:59:26.513Z,0.98
2022-09-22T05:01:53.549Z,0.88
2022-09-22T05:04:21.020Z,1.05
2022-09-22T05:06:47.989Z,1.40
2022-09-22T05:09:15.393Z,1.08
2022-09-22T05:11:42.314Z,0.88
2022-09-22T05:14:09.375Z,1.00
2022-09-22T05:16:36.876Z,1.00
2022-09-22T05:19:03.916Z,1.23
2022-09-22T05:21:31.008Z,0.85
2022-09-22T05:23:58.020Z,0.93
2022-09-22T05:26:25.290Z,1.08
2022-09-22T05:28:52.207Z,1.00
2022-09-22T05:31:19.697Z,1.10
2022-09-22T05:33:46.633Z,1.02
2022-09-22T05:36:13.625Z,1.10
2022-09-22T05:38:40.569Z,1.65
2022-09-22T05:41:07.876Z,1.40
2022-09-22T05:43:34.902Z,1.30
2022-09-22T05:46:01.910Z,1.17
2022-09-22T05:48:31.178Z,1.27
2022-09-22T05:50:58.877Z,1.20
2022-09-22T05:53:25.863Z,1.05
2022-09-22T05:55:52.869Z,1.23
2022-09-22T05:58:20.449Z,0.90
2022-09-22T06:00:47.596Z,1.20
2022-09-22T06:03:14.665Z,1.33
2022-09-22T06:05:41.866Z,1.30
2022-09-22T06:08:08.988Z,1.02
2022-09-22T06:10:38.630Z,1.20
2022-09-22T06:13:08.729Z,1.20
2022-09-22T06:15:36.416Z,1.20
2022-09-22T06:18:09.120Z,1.17
2022-09-22T06:20:38.886Z,1.10
2022-09-22T06:23:06.263Z,1.00
2022-09-22T06:25:33.202Z,1.45
2022-09-22T06:28:08.049Z,1.13
2022-09-22T06:30:38.052Z,1.33
2022-09-22T06:33:04.949Z,1.20
2022-09-22T06:35:37.449Z,1.23
2022-09-22T06:38:09.825Z,1.00
2022-09-22T06:40:36.836Z,1.20
2022-09-22T06:43:09.964Z,1.02
2022-09-22T06:45:36.991Z,1.10
2022-09-22T06:48:08.973Z,1.10
2022-09-22T06:50:37.579Z,1.23
2022-09-22T06:53:07.328Z,0.98
2022-09-22T06:55:35.926Z,1.33
2022-09-22T06:58:03.148Z,1.02
2022-09-22T07:00:32.782Z,1.25
2022-09-22T07:03:20.737Z,1.05
2022-09-22T07:06:00.898Z,1.02
2022-09-22T07:08:30.752Z,1.07
2022-09-22T07:11:01.798Z,1.10
2022-09-22T07:13:30.974Z,1.23
2022-09-22T07:16:05.696Z,1.05
2022-09-22T07:18:32.707Z,0.90
2022-09-22T07:21:08.642Z,0.80
2022-09-22T07:23:36.497Z,1.10
2022-09-22T07:26:10.217Z,1.27
2022-09-22T07:28:37.719Z,0.95
2022-09-22T07:31:10.869Z,1.13
2022-09-22T07:33:40.251Z,0.85
2022-09-22T07:36:12.937Z,1.27
2022-09-22T07:38:42.164Z,1.10
2022-09-22T07:41:14.905Z,1.08
2022-09-22T07:43:42.406Z,1.30
2022-09-22T07:46:09.567Z,0.95
2022-09-22T07:48:37.730Z,0.93
2022-09-22T07:51:12.866Z,1.15
2022-09-22T07:53:42.713Z,1.20
2022-09-22T07:56:13.375Z,1.30
2022-09-22T07:58:52.267Z,1.48
2022-09-22T08:01:22.423Z,1.08
2022-09-22T08:03:50.715Z,1.20
2022-09-22T08:06:20.212Z,1.02
2022-09-22T08:08:53.623Z,0.98
2022-09-22T08:11:24.260Z,1.38
2022-09-22T08:13:56.034Z,1.10
2022-09-22T08:16:28.788Z,0.93
2022-09-22T08:18:57.850Z,1.15
2022-09-22T08:21:26.676Z,1.00
2022-09-22T08:23:54.297Z,1.33
2022-09-22T08:26:21.994Z,1.52
2022-09-22T08:28:55.015Z,1.13
2022-09-22T08:31:24.436Z,1.65
2022-09-22T08:33:52.842Z,1.40
2022-09-22T08:36:20.681Z,1.08
2022-09-22T08:38:49.551Z,0.98
2022-09-22T08:41:21.814Z,1.08
2022-09-22T08:43:55.534Z,1.38
2022-09-22T08:46:29.404Z,1.05
2022-09-22T08:49:36.938Z,1.30
2022-09-22T08:52:38.754Z,1.23
2022-09-22T08:55:15.887Z,1.20
2022-09-22T08:57:59.226Z,1.23
2022-09-22T09:00:34.650Z,1.30
2022-09-22T09:03:36.242Z,1.27
2022-09-22T09:06:21.140Z,1.17
2022-09-22T09:09:25.560Z,1.40
2022-09-22T09:12:19.697Z,1.27
2022-09-22T09:15:29.088Z,0.93
2022-09-22T09:18:03.005Z,1.15
2022-09-22T09:20:44.897Z,1.33
2022-09-22T09:23:24.721Z,1.20
2022-09-22T09:25:55.582Z,1.15
2022-09-22T09:31:36.476Z,0.98
2022-09-22T09:34:13.338Z,1.30
2022-09-22T09:36:45.478Z,1.10
2022-09-22T09:39:22.798Z,1.08
2022-09-22T09:41:50.898Z,0.88
2022-09-22T09:44:30.338Z,1.10
2022-09-22T09:47:19.398Z,0.90
2022-09-22T09:49:52.683Z,1.13
2022-09-22T09:52:20.926Z,1.08
2022-09-22T09:54:48.635Z,0.93
2022-09-22T09:57:18.364Z,0.90
2022-09-22T10:00:06.703Z,0.82
2022-09-22T10:02:50.485Z,1.00
2022-09-22T10:05:17.253Z,1.27
2022-09-22T10:07:48.590Z,0.98
2022-09-22T10:10:41.074Z,0.95
2022-09-22T10:13:07.869Z,1.05
2022-09-22T10:15:37.883Z,1.10
2022-09-22T10:18:34.308Z,1.17
2022-09-22T10:21:23.099Z,1.02
2022-09-22T10:23:56.472Z,1.20
2022-09-22T10:26:29.509Z,1.35
2022-09-22T10:29:19.881Z,0.93
2022-09-22T10:32:12.415Z,0.82
2022-09-22T10:34:50.497Z,0.95
2022-09-22T10:37:24.772Z,1.25
2022-09-22T10:39:55.953Z,0.82
2022-09-22T10:42:46.146Z,0.80
2022-09-22T10:45:16.546Z,0.70
2022-09-22T10:47:59.145Z,0.68
2022-09-22T10:51:07.052Z,0.50
2022-09-22T10:54:11.196Z,0.95
2022-09-22T10:56:46.043Z,0.70
2022-09-22T10:59:45.950Z,0.73
2022-09-22T11:03:02.450Z,0.70
2022-09-22T11:06:12.539Z,0.80
2022-09-22T11:09:29.303Z,0.63
2022-09-22T11:12:38.815Z,0.70
2022-09-22T11:15:33.400Z,0.50
2022-09-22T11:18:21.682Z,0.80
2022-09-22T11:20:59.661Z,0.70
2022-09-22T11:24:16.155Z,0.60
2022-09-22T11:26:57.033Z,0.65
2022-09-22T11:29:51.718Z,0.93
2022-09-22T11:32:30.840Z,0.68
2022-09-22T11:35:22.628Z,0.98
2022-09-22T11:38:24.726Z,0.60
2022-09-22T11:41:20.603Z,0.63
2022-09-22T11:44:36.758Z,0.60
2022-09-22T11:47:46.652Z,0.70
2022-09-22T11:50:46.111Z,0.70
2022-09-22T11:53:30.000Z,0.70
2022-09-22T11:56:29.350Z,0.60
2022-09-22T11:59:02.690Z,0.90
2022-09-22T12:01:37.203Z,0.70
2022-09-22T12:04:44.046Z,0.70
2022-09-22T12:07:27.656Z,0.95
2022-09-22T12:10:05.303Z,0.68
2022-09-22T12:12:33.506Z,0.63
2022-09-22T12:15:39.375Z,0.80
2022-09-22T12:18:14.828Z,0.60
2022-09-22T12:21:27.910Z,0.73
2022-09-22T12:23:57.081Z,0.73
2022-09-22T12:26:53.746Z,0.63
2022-09-22T12:29:27.566Z,0.70
2022-09-22T12:31:58.578Z,0.70
2022-09-22T12:34:39.409Z,0.65
2022-09-22T12:37:36.082Z,0.57
2022-09-22T12:40:23.413Z,0.55
2022-09-22T12:42:53.125Z,0.60
2022-09-22T12:45:33.055Z,0.90
2022-09-22T12:48:10.410Z,0.50
2022-09-22T12:50:41.163Z,0.90
2022-09-22T12:53:23.420Z,0.95
2022-09-22T12:56:00.248Z,0.55
2022-09-22T12:58:30.065Z,0.52
2022-09-22T13:01:32.448Z,0.47
2022-09-22T13:04:16.221Z,0.73
2022-09-22T13:06:43.020Z,0.55
2022-09-22T13:09:21.366Z,0.60
2022-09-22T13:12:10.598Z,0.52
2022-09-22T13:15:08.472Z,0.77
2022-09-22T13:17:49.929Z,0.57
2022-09-22T13:20:38.982Z,0.60
2022-09-22T13:23:11.911Z,0.55
2022-09-22T13:25:40.048Z,0.77
2022-09-22T13:28:18.296Z,0.57
2022-09-22T13:30:48.831Z,0.60
2022-09-22T13:35:50.828Z,0.50
2022-09-22T13:38:17.832Z,0.70
2022-09-22T13:40:49.256Z,0.60
2022-09-22T13:43:29.145Z,0.80
2022-09-22T13:45:59.158Z,0.90
2022-09-22T13:48:35.416Z,0.80
2022-09-22T13:51:11.994Z,0.55
2022-09-22T13:53:42.828Z,0.57
2022-09-22T13:56:20.760Z,0.43
2022-09-22T13:58:51.021Z,0.50
2022-09-22T14:01:21.583Z,1.10
2022-09-22T14:06:20.136Z,0.40
2022-09-22T14:08:50.075Z,0.80
2022-09-22T14:11:27.302Z,0.70
2022-09-22T14:13:54.576Z,0.80
2022-09-22T14:16:33.595Z,0.50
2022-09-22T14:19:04.255Z,0.80
2022-09-22T14:24:01.379Z,0.63
2022-09-22T14:26:36.272Z,0.73
2022-09-22T14:29:26.945Z,0.60
2022-09-22T14:34:32.817Z,0.80
2022-09-22T14:37:16.744Z,0.77
2022-09-22T14:39:44.995Z,0.55
2022-09-22T14:42:27.398Z,0.55
2022-09-22T14:45:08.452Z,0.60
2022-09-22T14:52:32.814Z,0.60
2022-09-22T14:55:16.985Z,0.60
2022-09-22T14:57:47.948Z,0.50
2022-09-22T15:00:35.263Z,0.63
2022-09-22T15:03:24.023Z,0.57
2022-09-22T15:05:51.379Z,0.68
2022-09-22T15:08:28.802Z,0.70
2022-09-22T15:10:59.284Z,0.80
2022-09-22T15:13:42.043Z,0.50
2022-09-22T15:16:33.778Z,0.60
2022-09-22T15:19:01.190Z,0.70
2022-09-22T15:21:29.311Z,0.60
2022-09-22T15:23:59.835Z,0.60
2022-09-22T15:29:01.677Z,0.70
2022-09-22T15:31:29.692Z,0.73
2022-09-22T15:34:01.217Z,0.52
2022-09-22T15:36:32.742Z,0.60
2022-09-22T15:39:19.261Z,0.93
2022-09-22T15:41:48.104Z,0.80
2022-09-22T15:44:16.477Z,0.75
2022-09-22T15:46:48.769Z,0.57
2022-09-22T15:49:22.453Z,0.90
2022-09-22T15:51:50.256Z,1.20
2022-09-22T15:54:20.922Z,1.02
2022-09-22T15:59:32.187Z,0.70
2022-09-22T16:02:00.483Z,0.47
2022-09-22T16:04:32.902Z,0.47
2022-09-22T16:07:08.224Z,0.57
2022-09-22T16:09:35.922Z,0.63
2022-09-22T16:12:03.293Z,0.57
2022-09-22T16:14:30.349Z,0.63
2022-09-22T16:16:57.292Z,0.65
2022-09-22T16:19:24.227Z,0.50
2022-09-22T16:21:54.133Z,0.60
2022-09-22T16:24:22.399Z,0.60
2022-09-22T16:26:50.144Z,0.68
2022-09-22T16:29:17.081Z,0.60
2022-09-22T16:31:44.089Z,0.55
2022-09-22T16:34:11.755Z,0.77
2022-09-22T16:36:41.559Z,0.70
2022-09-22T16:39:08.855Z,0.60
2022-09-22T16:41:37.155Z,0.65
2022-09-22T16:44:05.223Z,0.40
2022-09-22T16:46:35.842Z,0.60
2022-09-22T16:51:40.967Z,0.40
2022-09-22T16:54:14.161Z,0.68
2022-09-22T16:56:47.793Z,0.43
2022-09-22T16:59:21.087Z,0.73
2022-09-22T17:01:48.958Z,0.50
2022-09-22T17:04:19.307Z,0.65
2022-09-22T17:06:48.748Z,0.60
2022-09-22T17:09:16.683Z,0.50
2022-09-22T17:11:46.271Z,0.60
2022-09-22T17:14:21.501Z,0.52
2022-09-22T17:16:52.053Z,0.70
2022-09-22T17:19:27.686Z,0.90
2022-09-22T17:21:56.316Z,0.52
2022-09-22T17:24:25.569Z,0.47
2022-09-22T17:26:58.548Z,0.73
2022-09-22T17:29:32.474Z,0.68
2022-09-22T17:32:05.713Z,0.50
2022-09-22T17:34:34.824Z,0.50
2022-09-22T17:37:02.985Z,0.60
2022-09-22T17:39:32.061Z,0.50
2022-09-22T17:41:59.206Z,0.60
2022-09-22T17:44:28.716Z,0.50
2022-09-22T17:47:14.608Z,0.55
2022-09-22T17:49:59.979Z,0.57
2022-09-22T17:52:33.081Z,0.75
2022-09-22T17:55:09.473Z,0.50
2022-09-22T17:57:42.698Z,0.88
2022-09-22T18:00:21.070Z,0.65
2022-09-22T18:02:50.454Z,0.70
2022-09-22T18:05:25.336Z,0.77
2022-09-22T18:07:57.476Z,0.75
2022-09-22T18:10:32.328Z,0.60
2022-09-22T18:13:01.570Z,0.65
2022-09-22T18:15:29.073Z,0.60
2022-09-22T18:17:57.977Z,0.57
2022-09-22T18:20:27.311Z,0.55
2022-09-22T18:22:55.179Z,0.70
2022-09-22T18:25:25.569Z,0.68
2022-09-22T18:27:53.474Z,0.65
2022-09-22T18:30:20.558Z,0.55
2022-09-22T18:32:48.808Z,0.60
2022-09-22T18:35:16.098Z,0.70
2022-09-22T18:37:43.142Z,0.50
2022-09-22T18:40:12.266Z,0.60
2022-09-22T18:42:39.659Z,0.70
2022-09-22T18:45:07.388Z,0.80
2022-09-22T18:47:40.750Z,0.45
2022-09-22T18:50:08.749Z,0.77
2022-09-22T18:52:37.135Z,0.75
2022-09-22T18:55:04.865Z,0.70
2022-09-22T18:57:31.807Z,0.70
2022-09-22T19:00:00.173Z,0.80
2022-09-22T19:02:27.373Z,0.70
2022-09-22T19:04:54.578Z,0.70
2022-09-22T19:07:44.211Z,0.93
2022-09-22T19:10:22.318Z,0.90
2022-09-22T19:12:49.568Z,0.60
2022-09-22T19:15:18.817Z,0.70
2022-09-22T19:17:49.283Z,0.70
2022-09-22T19:20:23.702Z,0.80
2022-09-22T19:22:52.167Z,0.80
2022-09-22T19:25:21.361Z,0.75
2022-09-22T19:27:49.606Z,0.65
2022-09-22T19:30:20.515Z,1.00
2022-09-22T19:32:50.376Z,0.68
2022-09-22T19:35:17.410Z,0.85
2022-09-22T19:37:44.425Z,0.65
2022-09-22T19:40:18.708Z,0.70
2022-09-22T19:42:47.017Z,1.08
2022-09-22T19:45:14.573Z,0.77
2022-09-22T19:47:41.940Z,0.73
2022-09-22T19:50:09.599Z,0.93
2022-09-22T19:52:38.080Z,0.85
2022-09-22T19:55:11.336Z,0.90
2022-09-22T19:57:41.545Z,0.73
2022-09-22T20:00:17.911Z,0.75
2022-09-22T20:02:45.388Z,0.68
2022-09-22T20:05:22.174Z,1.00
2022-09-22T20:07:49.869Z,1.42
2022-09-22T20:10:19.211Z,0.70
2022-09-22T20:12:46.356Z,0.98
2022-09-22T20:15:15.066Z,0.88
2022-09-22T20:17:46.079Z,1.00
2022-09-22T20:20:19.823Z,0.70
2022-09-22T20:22:48.358Z,0.85
2022-09-22T20:25:28.982Z,0.80
2022-09-22T20:27:56.154Z,1.10
2022-09-22T20:30:23.174Z,0.73
2022-09-22T20:32:51.029Z,1.10
2022-09-22T20:35:21.623Z,1.00
2022-09-22T20:37:48.657Z,0.93
2022-09-22T20:40:21.322Z,0.90
2022-09-22T20:42:53.082Z,1.20
2022-09-22T20:45:25.124Z,0.93
2022-09-22T20:47:52.333Z,1.10
2022-09-22T20:50:21.252Z,1.10
2022-09-22T20:52:48.293Z,1.00
2022-09-22T20:55:15.475Z,1.20
2022-09-22T20:57:42.639Z,0.93
2022-09-22T21:00:10.398Z,1.00
2022-09-22T21:02:37.429Z,1.10
2022-09-22T21:05:04.750Z,1.00
2022-09-22T21:07:32.804Z,0.90
2022-09-22T21:10:18.129Z,1.00
2022-09-22T21:12:45.326Z,0.80
2022-09-22T21:15:12.431Z,0.90
2022-09-22T21:17:43.281Z,1.08
2022-09-22T21:20:10.990Z,0.80
2022-09-22T21:22:37.922Z,0.80
2022-09-22T21:25:05.408Z,0.90
2022-09-22T21:27:32.338Z,1.00
2022-09-22T21:29:59.256Z,1.15
2022-09-22T21:32:26.271Z,1.48
2022-09-22T21:34:53.251Z,1.00
2022-09-22T21:37:20.948Z,1.30
2022-09-22T21:39:47.915Z,1.20
2022-09-22T21:42:15.681Z,1.10
2022-09-22T21:44:42.689Z,0.85
2022-09-22T21:47:11.124Z,1.00
2022-09-22T21:49:38.425Z,1.00
2022-09-22T21:52:05.485Z,1.17
2022-09-22T21:54:32.407Z,1.40
2022-09-22T21:56:59.371Z,1.20
2022-09-22T21:59:26.301Z,1.10
2022-09-22T22:01:53.257Z,1.40
2022-09-22T22:04:20.222Z,1.10
2022-09-22T22:06:47.330Z,1.00
2022-09-22T22:09:17.541Z,1.20
2022-09-22T22:11:49.990Z,1.10
2022-09-22T22:14:20.393Z,1.45
2022-09-22T22:16:53.288Z,1.10
2022-09-22T22:19:24.708Z,1.25
2022-09-22T22:21:51.961Z,1.10
2022-09-22T22:24:28.230Z,1.00
2022-09-22T22:27:09.633Z,1.80
2022-09-22T22:29:38.671Z,1.20
2022-09-22T22:32:09.015Z,1.55
2022-09-22T22:34:36.334Z,1.23
2022-09-22T22:37:06.898Z,1.10
2022-09-22T22:39:33.822Z,1.50
2022-09-22T22:42:00.734Z,1.40
2022-09-22T22:44:27.888Z,1.45
2022-09-22T22:46:54.902Z,1.45
2022-09-22T22:49:21.872Z,1.08
2022-09-22T22:51:49.765Z,1.20
2022-09-22T22:54:16.704Z,1.40
2022-09-22T22:56:45.848Z,1.60
2022-09-22T22:59:15.973Z,1.00
2022-09-22T23:01:44.138Z,1.27
2022-09-22T23:04:12.038Z,1.27
2022-09-22T23:06:43.698Z,1.30
2022-09-22T23:09:15.525Z,1.30
2022-09-22T23:11:43.959Z,1.50
2022-09-22T23:14:12.935Z,1.10
2022-09-22T23:16:46.405Z,1.10
2022-09-22T23:19:16.837Z,1.33
2022-09-22T23:21:45.178Z,1.40
2022-09-22T23:24:18.743Z,1.23
2022-09-22T23:26:46.842Z,1.20
2022-09-22T23:29:13.988Z,1.05
2022-09-22T23:31:40.998Z,1.20
2022-09-22T23:34:07.973Z,1.35
2022-09-22T23:36:34.960Z,1.70
2022-09-22T23:39:03.749Z,1.40
2022-09-22T23:41:36.463Z,1.30
2022-09-22T23:44:08.329Z,1.38
2022-09-22T23:46:35.466Z,1.50
2022-09-22T23:49:02.636Z,1.25
2022-09-22T23:51:30.354Z,1.17
2022-09-22T23:53:58.443Z,1.17
2022-09-22T23:56:25.530Z,1.10
2022-09-22T23:58:52.885Z,1.20
